May 22, 2022

Time Code Weather Temp. Visibility Clouds Wind METAR/SPECI
9:30 am
V
75 °F 6¼ mi+ - 130°   130° 5 kt METAR LFBE 220730Z AUTO 13005KT 090V160 CAVOK 24/19 Q1011 NOSIG
9:00 am
V
72 °F 6¼ mi+ - 100°   100° 3 kt METAR LFBE 220700Z AUTO 10003KT 070V150 CAVOK 22/22 Q1011 NOSIG
8:30 am
M
68 °F 3⅛ mi - 050°   050° 1 kt METAR LFBE 220630Z AUTO 05001KT 5000 BR NSC 20/19 Q1012 BECMG 13010KT
8:00 am
M
66 °F 4⅜ mi - 080°   080° 3 kt METAR LFBE 220600Z AUTO 08003KT 7000 NSC 19/18 Q1012 NOSIG
7:30 am
M
64 °F 3¾ mi - Var   Var 3 kt METAR LFBE 220530Z AUTO VRB03KT 6000 NSC 18/18 Q1012 NOSIG
7:00 am
M
64 °F 3⅛ mi - Var   Var 2 kt METAR LFBE 220500Z AUTO VRB02KT 5000 BR NSC 18/17 Q1012 NOSIG
6:30 am
I
64 °F 2½ mi - 070°   070° 3 kt METAR LFBE 220430Z AUTO 07003KT 4100 BR NSC 18/17 Q1012 BECMG 9999 NSW
6:00 am
M
64 °F 3¾ mi - 090°   090° 3 kt METAR LFBE 220400Z AUTO 09003KT 070V130 6000 NSC 18/17 Q1012 NOSIG
5:30 am
M
64 °F 4⅜ mi - 030°   030° 2 kt METAR LFBE 220330Z AUTO 03002KT 7000 NSC 18/17 Q1012 NOSIG
5:00 am
V
64 °F 5 mi - 090°   090° 4 kt METAR LFBE 220300Z AUTO 09004KT 8000 NSC 18/17 Q1012 NOSIG
4:30 am
M
63 °F 4⅜ mi - Var   Var 2 kt METAR LFBE 220230Z AUTO VRB02KT 7000 NSC 17/16 Q1012 NOSIG
4:00 am
M
63 °F 3⅛ mi - 130°   130° 1 kt METAR LFBE 220200Z AUTO 13001KT 5000 BR NSC 17/16 Q1012 NOSIG
3:30 am
M
64 °F 3¾ mi - Var   Var 3 kt METAR LFBE 220130Z AUTO VRB03KT 6000 NSC 18/17 Q1013 NOSIG
3:00 am
I
64 °F 1⅜ mi - 080°   080° 2 kt METAR LFBE 220100Z AUTO 08002KT 6000 2300 NSC 18/18 Q1013 NOSIG
2:30 am
M
64 °F 4⅜ mi - 060°   060° 3 kt METAR LFBE 220030Z AUTO 06003KT 7000 NSC 18/17 Q1013 NOSIG
2:00 am
M
66 °F 3¾ mi - 070°   070° 3 kt METAR LFBE 220000Z AUTO 07003KT 6000 NSC 19/18 Q1013 NOSIG
1:30 am
M
66 °F 4⅜ mi - 070°   070° 2 kt METAR LFBE 212330Z AUTO 07002KT 7000 NSC 19/18 Q1013
1:00 am
V
66 °F 5⅝ mi - Var   Var 2 kt METAR LFBE 212300Z AUTO VRB02KT 9000 NSC 19/19 Q1013
12:30 am
V
68 °F 6¼ mi+ - Var   Var 2 kt METAR LFBE 212230Z AUTO VRB02KT CAVOK 20/19 Q1014
12:00 am
V
68 °F 6¼ mi+ - 090°   090° 3 kt METAR LFBE 212200Z AUTO 09003KT CAVOK 20/19 Q1014

May 21, 2022

Time Code Weather Temp. Visibility Clouds Wind METAR/SPECI
11:30 pm
V
70 °F 6¼ mi+ - Var   Var 3 kt METAR LFBE 212130Z AUTO VRB03KT CAVOK 21/20 Q1014
11:00 pm
V
70 °F 6¼ mi+ - Var   Var 3 kt METAR LFBE 212100Z AUTO VRB03KT CAVOK 21/19 Q1014
10:30 pm
V
72 °F 6¼ mi+ - Var   Var 2 kt METAR LFBE 212030Z AUTO VRB02KT CAVOK 22/20 Q1014
10:00 pm
V
73 °F 6¼ mi+ - Var   Var 2 kt METAR LFBE 212000Z AUTO VRB02KT CAVOK 23/20 Q1014 NOSIG
9:30 pm
V
75 °F 6¼ mi+ - Var   Var 2 kt METAR LFBE 211930Z AUTO VRB02KT CAVOK 24/20 Q1014 NOSIG
9:00 pm
V
77 °F 6¼ mi+ - 110°   110° 1 kt METAR LFBE 211900Z AUTO 11001KT CAVOK 25/21 Q1014 NOSIG
8:30 pm
V
81 °F 6¼ mi+ - Var   000° 0 kt METAR LFBE 211830Z AUTO 00000KT CAVOK 27/21 Q1015 NOSIG
8:00 pm
V
82 °F 6¼ mi+ - 070°   070° 2 kt METAR LFBE 211800Z AUTO 07002KT CAVOK 28/20 Q1014 NOSIG
7:30 pm
V
86 °F 6¼ mi+ - 070°   070° 2 kt METAR LFBE 211730Z AUTO 07002KT CAVOK 30/20 Q1015 NOSIG
7:00 pm
V
88 °F 6¼ mi+ - 070°   070° 3 kt METAR LFBE 211700Z AUTO 07003KT 040V100 CAVOK 31/20 Q1015 NOSIG
6:30 pm
V
88 °F 6¼ mi+ - 070°   070° 5 kt METAR LFBE 211630Z AUTO 07005KT 030V100 CAVOK 31/20 Q1015 NOSIG
6:00 pm
V
88 °F 6¼ mi+ - 120°   120° 4 kt METAR LFBE 211600Z AUTO 12004KT 070V170 CAVOK 31/20 Q1015 NOSIG
5:30 pm
V
90 °F 6¼ mi+ - 100°   100° 3 kt METAR LFBE 211530Z AUTO 10003KT 040V160 CAVOK 32/19 Q1015 NOSIG
5:00 pm
V
88 °F 6¼ mi+ - Var   Var 3 kt METAR LFBE 211500Z AUTO VRB03KT CAVOK 31/19 Q1016 NOSIG
4:30 pm
V
88 °F 6¼ mi+ - Var   Var 3 kt METAR LFBE 211430Z AUTO VRB03KT CAVOK 31/19 Q1016 NOSIG
4:00 pm
V
88 °F 6¼ mi+ - 120°   120° 3 kt METAR LFBE 211400Z AUTO 12003KT 060V180 CAVOK 31/19 Q1017 NOSIG
3:30 pm
V
88 °F 6¼ mi+ - 070°   070° 3 kt METAR LFBE 211330Z AUTO 07003KT 020V190 CAVOK 31/20 Q1017 NOSIG
3:00 pm
V
86 °F 6¼ mi+ - 080°   080° 5 kt METAR LFBE 211300Z AUTO 08005KT 350V120 CAVOK 30/20 Q1017 NOSIG
2:30 pm
V
84 °F 6¼ mi+ - 070°   070° 6 kt METAR LFBE 211230Z AUTO 07006KT 360V110 CAVOK 29/20 Q1017 NOSIG
2:00 pm
V
84 °F 6¼ mi+ - 020°   020° 5 kt METAR LFBE 211200Z AUTO 02005KT 340V080 CAVOK 29/20 Q1018 NOSIG
1:30 pm
V
82 °F 6¼ mi+ - 040°   040° 5 kt METAR LFBE 211130Z AUTO 04005KT 010V080 CAVOK 28/20 Q1018 NOSIG
1:00 pm
V
82 °F 6¼ mi+ - 050°   050° 6 kt METAR LFBE 211100Z AUTO 05006KT 010V100 CAVOK 28/20 Q1018 NOSIG
12:30 pm
V
81 °F 6¼ mi+ - 050°   050° 4 kt METAR LFBE 211030Z AUTO 05004KT 360V110 CAVOK 27/20 Q1019 NOSIG
12:00 pm
V
81 °F 6¼ mi+ - Var   Var 3 kt METAR LFBE 211000Z AUTO VRB03KT CAVOK 27/19 Q1019 NOSIG
11:30 am
V
79 °F 6¼ mi+ - Var   Var 3 kt METAR LFBE 210930Z AUTO VRB03KT CAVOK 26/19 Q1019 NOSIG
11:00 am
V
77 °F 6¼ mi+ - Var   Var 3 kt METAR LFBE 210900Z AUTO VRB03KT CAVOK 25/19 Q1019 NOSIG
10:30 am
V
77 °F 6¼ mi+ - Var   Var 3 kt METAR LFBE 210830Z AUTO VRB03KT CAVOK 25/18 Q1020 NOSIG
10:00 am
V
73 °F 6¼ mi+ - Var   Var 2 kt METAR LFBE 210800Z AUTO VRB02KT CAVOK 23/18 Q1020 NOSIG
9:30 am
V
70 °F 6¼ mi+ - 070°   070° 4 kt METAR LFBE 210730Z AUTO 07004KT 030V100 CAVOK 21/18 Q1020 NOSIG
9:00 am
V
66 °F 6¼ mi+ - 070°   070° 4 kt METAR LFBE 210700Z AUTO 07004KT CAVOK 19/17 Q1020 NOSIG
8:30 am
V
63 °F 6¼ mi+ - 080°   080° 3 kt METAR LFBE 210630Z AUTO 08003KT CAVOK 17/16 Q1020 NOSIG
8:00 am
V
61 °F 6¼ mi+ - Var   Var 1 kt METAR LFBE 210600Z AUTO VRB01KT CAVOK 16/16 Q1021 NOSIG
7:30 am
V
57 °F 6¼ mi+ - Var   000° 0 kt METAR LFBE 210530Z AUTO 00000KT CAVOK 14/14 Q1020 BECMG 12010KT
7:00 am
V
55 °F 6¼ mi+ - 070°   070° 2 kt METAR LFBE 210500Z AUTO 07002KT CAVOK 13/12 Q1020 NOSIG
6:30 am
V
55 °F 6¼ mi+ - Var   000° 0 kt METAR LFBE 210430Z AUTO 00000KT CAVOK 13/13 Q1021 NOSIG
6:00 am
V
57 °F 6¼ mi+ - Var   000° 0 kt METAR LFBE 210400Z AUTO 00000KT CAVOK 14/13 Q1021 NOSIG
5:30 am
V
57 °F 6¼ mi+ - 140°   140° 2 kt METAR LFBE 210330Z AUTO 14002KT CAVOK 14/13 Q1021 NOSIG
5:00 am
V
57 °F 6¼ mi+ - 210°   210° 1 kt METAR LFBE 210300Z AUTO 21001KT CAVOK 14/13 Q1021 NOSIG
4:30 am
V
57 °F 6¼ mi+ - 150°   150° 1 kt METAR LFBE 210230Z AUTO 15001KT CAVOK 14/13 Q1022 NOSIG
4:00 am
V
57 °F 6¼ mi+ - Var   000° 0 kt METAR LFBE 210200Z AUTO 00000KT CAVOK 14/13 Q1022 NOSIG
3:30 am
V
57 °F 6¼ mi+ - Var   Var 2 kt METAR LFBE 210130Z AUTO VRB02KT CAVOK 14/13 Q1022 NOSIG
3:00 am
V
59 °F 6¼ mi+ - Var   000° 0 kt METAR LFBE 210100Z AUTO 00000KT CAVOK 15/13 Q1022 NOSIG
2:30 am
V
59 °F 6¼ mi+ - Var   Var 2 kt METAR LFBE 210030Z AUTO VRB02KT CAVOK 15/14 Q1023 NOSIG
2:00 am
V
61 °F 6¼ mi+ - 220°   220° 2 kt METAR LFBE 210000Z AUTO 22002KT CAVOK 16/14 Q1023 NOSIG
1:30 am
V
61 °F 6¼ mi+ - 240°   240° 3 kt METAR LFBE 202330Z AUTO 24003KT CAVOK 16/14 Q1023 NOSIG
1:00 am
V
63 °F 6¼ mi+ - 240°   240° 4 kt METAR LFBE 202300Z AUTO 24004KT 200V260 CAVOK 17/15 Q1023
12:30 am
V
63 °F 6¼ mi+ - 280°   280° 4 kt METAR LFBE 202230Z AUTO 28004KT 250V310 CAVOK 17/15 Q1023
12:00 am
V
64 °F 6¼ mi+ - Var   Var 3 kt METAR LFBE 202200Z AUTO VRB03KT CAVOK 18/15 Q1023

May 20, 2022

Time Code Weather Temp. Visibility Clouds Wind METAR/SPECI
11:30 pm
V
64 °F 6¼ mi+ - Var   Var 2 kt METAR LFBE 202130Z AUTO VRB02KT CAVOK 18/16 Q1023
11:00 pm
V
66 °F 6¼ mi+ - Var   Var 2 kt METAR LFBE 202100Z AUTO VRB02KT CAVOK 19/16 Q1023
10:30 pm
V
68 °F 6¼ mi+ - Var   Var 2 kt METAR LFBE 202030Z AUTO VRB02KT CAVOK 20/16 Q1023
10:00 pm
V
68 °F 6¼ mi+ - 290°   290° 5 kt METAR LFBE 202000Z AUTO 29005KT CAVOK 20/16 Q1023 NOSIG
9:30 pm
V
72 °F 6¼ mi+ - 280°   280° 6 kt METAR LFBE 201930Z AUTO 28006KT CAVOK 22/16 Q1023 NOSIG
9:00 pm
V
73 °F 6¼ mi+ - 280°   280° 6 kt METAR LFBE 201900Z AUTO 28006KT CAVOK 23/17 Q1023 NOSIG
8:30 pm
V
75 °F 6¼ mi+ - 280°   280° 7 kt METAR LFBE 201830Z AUTO 28007KT CAVOK 24/17 Q1022 NOSIG
8:00 pm
V
77 °F 6¼ mi+ - 290°   290° 8 kt METAR LFBE 201800Z AUTO 29008KT CAVOK 25/17 Q1022 NOSIG
7:30 pm
V
77 °F 6¼ mi+ - 280°   280° 9 kt METAR LFBE 201730Z AUTO 28009KT CAVOK 25/17 Q1022 NOSIG
7:00 pm
V
79 °F 6¼ mi+ - 290°   290° 8 kt METAR LFBE 201700Z AUTO 29008KT CAVOK 26/17 Q1022 NOSIG
6:30 pm
V
81 °F 5⅝ mi - 290°   290° 10 kt METAR LFBE 201630Z AUTO 29010KT 250V310 9000 NSC 27/16 Q1022 NOSIG
6:00 pm
V
81 °F 6¼ mi+ - 280°   280° 9 kt METAR LFBE 201600Z AUTO 28009KT 240V310 CAVOK 27/17 Q1022 NOSIG
5:30 pm
V
82 °F 6¼ mi+ - 280°   280° 10 kt METAR LFBE 201530Z AUTO 28010KT CAVOK 28/17 Q1022 NOSIG
5:00 pm
V
82 °F 6¼ mi+ - 270°   270° 8 kt METAR LFBE 201500Z AUTO 27008KT 220V300 9999 FEW048 28/17 Q1022 NOSIG
4:30 pm
V
82 °F 6¼ mi+ - 250°   250° 10 kt METAR LFBE 201430Z AUTO 25010KT CAVOK 28/17 Q1022 NOSIG
4:00 pm
V
82 °F 6¼ mi+ - 260°   260° 8 kt METAR LFBE 201400Z AUTO 26008KT 230V300 CAVOK 28/16 Q1022 NOSIG
3:30 pm
V
82 °F 6¼ mi+ - 280°   280° 9 kt METAR LFBE 201330Z AUTO 28009KT CAVOK 28/17 Q1022 NOSIG
3:00 pm
V
82 °F 6¼ mi+ - 300°   300° 8 kt METAR LFBE 201300Z AUTO 30008KT 250V320 CAVOK 28/18 Q1022 NOSIG
2:30 pm
V
82 °F 6¼ mi+ - 260°   260° 5 kt METAR LFBE 201230Z AUTO 26005KT 230V310 CAVOK 28/18 Q1021 NOSIG
2:00 pm
V
81 °F 6¼ mi+ - 250°   250° 6 kt METAR LFBE 201200Z AUTO 25006KT 190V280 CAVOK 27/18 Q1021 NOSIG
1:30 pm
V
81 °F 6¼ mi+ - 270°   270° 9 kt METAR LFBE 201130Z AUTO 27009KT 220V290 CAVOK 27/17 Q1021 NOSIG
1:00 pm
V
82 °F 6¼ mi+ - 200°   200° 6 kt METAR LFBE 201100Z AUTO 20006KT 110V260 CAVOK 28/17 Q1021 NOSIG
12:30 pm
V
81 °F 6¼ mi+ - 200°   200° 4 kt METAR LFBE 201030Z AUTO 20004KT 150V260 CAVOK 27/17 Q1021 NOSIG
12:00 pm
V
79 °F 6¼ mi+ - 200°   200° 4 kt METAR LFBE 201000Z AUTO 20004KT 170V250 CAVOK 26/16 Q1021 NOSIG
11:30 am
V
77 °F 6¼ mi+ - 180°   180° 6 kt METAR LFBE 200930Z AUTO 18006KT 150V220 CAVOK 25/16 Q1020 NOSIG
11:00 am
V
77 °F 6¼ mi+ - 160°   160° 4 kt METAR LFBE 200900Z AUTO 16004KT 110V200 CAVOK 25/16 Q1020 NOSIG
10:30 am
V
75 °F 6¼ mi+ - 180°   180° 3 kt METAR LFBE 200830Z AUTO 18003KT 120V230 CAVOK 24/16 Q1020 NOSIG
10:00 am
V
73 °F 6¼ mi+ - 110°   110° 4 kt METAR LFBE 200800Z AUTO 11004KT 040V180 CAVOK 23/15 Q1019 NOSIG
9:30 am
V
70 °F 6¼ mi+ - 130°   130° 5 kt METAR LFBE 200730Z AUTO 13005KT 060V180 CAVOK 21/14 Q1019 NOSIG
9:00 am
V
70 °F 6¼ mi+ - 150°   150° 6 kt METAR LFBE 200700Z AUTO 15006KT 100V180 CAVOK 21/14 Q1019 NOSIG
Older data

Download our app

Easy access to all aviation weather on your mobile phone and tablet.
With many features not available on the website, like offline support and a personal airport list.

We and third parties follow your internet behavior on our website with cookies. If you continue, we assume you agree with our cookie policy. Learn more